Aeroporto :
LOGIN :

Iscrizione | Disclaimer

   EN    FR    IT 

 










Sommario :    VFR   VFR Marginale   IFR   IFR Intensivo   IFR Molto Intensivo
Visibilità : 
Base nubi : 
>= 8 km
>= 3000ft
5 / 8 km
1000 / 3000 ft
1500m / 5 km
500 / 1000 ft
800 / 1500m
200 / 500 ft
< 800m
< 200 ft
Simboli :   Temporali  Nebbia  Neve Forte  Precipitazioni Forti  Vento > 20 kt
SIGMETs :   Varie  Temporali  Ghiacco  Turbolenza  Onda orograficha  Ceneri Vulcaniche







- Altitudine del aeroporto : 20 ft


EBFN - Koksijde

ULTIMO METAR :
  • 161225Z AUTO 24012KT 9999 SCT034/// BKN093/// 20/12 Q1020 BLU

METARs OBSOLETI :
  • 161155Z AUTO 22013KT 9999 FEW034/// 20/11 Q1019 BLU
  • 161125Z AUTO 22012KT 9999 FEW032/// 19/12 Q1020 BLU
  • 161055Z AUTO 22013KT 9999 BKN028/// 19/12 Q1020 BLU
  • 161025Z AUTO 22012KT 9999 SCT026/// BKN045/// 19/12 Q1019 BLU
  • 160955Z AUTO 23012KT 9999 BKN028/// 17/11 Q1020 BLU
  • 160925Z AUTO 22010KT 9999 BKN028/// 18/12 Q1019 BLU

TAF TAF EBFN
Valido dal 16 a 13 ore il 16 a 22 ore UTC


161141Z 1613/1622 23013KT 9999 SCT035
PROB30
TEMPO 1613/1622 6000 -SHRA SCT020
Nessun NOTAM noto per questo aeroporto.



MetMap, La meteo Aeronautica in un colpo d'occhio ! - Copyright ORBIFLY Dicembre 2007 - Disclaimer

ORBIFLY MET'MAP TEAM :

Programmazione e sviluppo : Alexandra Zaïnal
Concezione e sviluppo : Baudouin d'Aumeries
Co-Programmazione e sviluppo : Marc-Olivier Méhu
Supporto tecnico e logistico : Manuel Goepfert
Aiuto per la traduzione : Arnaldo La Scala

Contatto : metmap@orbifly.com




FONTI E CREDITI :

   NOAA